Terminal Aerodrome Forecast
Issued by NWS

Current Version | Previous Version | Text Only | Print | Product List | Glossary Off
Versions: 1 2 3 4 5 6 7 8 9 10 11 12 13 14 15 16 17 18 19 20 21 22

000
FTUS41 KRLX 011128
TAFCKB
TAF
KCKB 011128Z 0112/0212 VRB03KT P6SM BKN020
     FM011400 24006KT P6SM SCT020
     FM011800 26010G15KT P6SM SCT040
     FM020800 00000KT 4SM BR SCT050=

USA.gov is the U.S. government's official web portal to all federal, state and local government web resources and services.